Time;durP1;ratioP1;P1;durP2;ratioP2;P2;SDS_P1;SDS_P2;PMS_P1;PMS_P2;Temp;Humidity;BMP_temperature;BMP_pressure;BME280_temperature;BME280_humidity;BME280_pressure;Samples;Min_cycle;Max_cycle;Signal;HPM_P1;HPM_P2
2021/12/01 00:01:36;;;;;;;7.70;4.43;;;;;;;4.97;75.67;98131.31;4385533;32;32437;-84
2021/12/01 00:04:04;;;;;;;6.75;4.30;;;;;;;5.12;75.16;98128.13;4432163;27;33547;-83
2021/12/01 00:06:32;;;;;;;6.78;4.25;;;;;;;5.17;74.16;98131.66;4404512;32;32552;-85
2021/12/01 00:09:00;;;;;;;7.25;4.25;;;;;;;5.23;74.30;98126.63;4405409;32;33947;-86
2021/12/01 00:11:28;;;;;;;9.50;5.20;;;;;;;5.15;74.34;98125.59;4405582;32;33771;-83
2021/12/01 00:13:55;;;;;;;7.43;4.32;;;;;;;4.84;75.99;98132.75;4391161;32;33282;-85
2021/12/01 00:16:23;;;;;;;7.72;4.32;;;;;;;5.33;74.06;98127.63;4391706;32;34705;-84
2021/12/01 00:18:51;;;;;;;8.90;4.50;;;;;;;5.03;74.77;98131.38;4376242;32;33011;-84
2021/12/01 00:21:18;;;;;;;8.82;4.30;;;;;;;4.93;75.57;98138.94;4388342;32;34548;-84
2021/12/01 00:23:46;;;;;;;7.90;4.80;;;;;;;5.06;74.93;98146.88;4376872;32;34170;-84
2021/12/01 00:26:13;;;;;;;6.07;3.90;;;;;;;5.20;74.02;98141.97;4364017;32;33083;-85
2021/12/01 00:28:41;;;;;;;7.43;4.22;;;;;;;5.02;74.50;98150.22;4393408;32;33869;-83
2021/12/01 00:31:08;;;;;;;6.65;3.60;;;;;;;5.24;73.60;98148.91;4390381;32;33957;-85
2021/12/01 00:33:36;;;;;;;8.57;4.03;;;;;;;5.43;73.01;98152.66;4392947;32;33059;-85
2021/12/01 00:36:04;;;;;;;6.45;3.80;;;;;;;4.93;74.27;98151.78;4396198;32;34703;-84
2021/12/01 00:38:31;;;;;;;6.25;3.33;;;;;;;5.16;74.12;98150.47;4390784;32;34279;-84
2021/12/01 00:41:02;;;;;;;6.28;3.47;;;;;;;4.99;74.83;98157.84;4392508;32;34230;-84
2021/12/01 00:43:30;;;;;;;6.95;2.75;;;;;;;4.39;76.00;98151.56;4398666;32;33197;-86
2021/12/01 00:46:00;;;;;;;5.95;3.22;;;;;;;4.75;75.37;98163.41;4383357;32;33523;-83
2021/12/01 00:48:28;;;;;;;3.90;1.98;;;;;;;5.05;74.43;98173.41;4396897;32;33012;-88
2021/12/01 00:50:55;;;;;;;2.78;1.80;;;;;;;4.93;73.96;98167.19;4390507;32;33676;-85
2021/12/01 00:53:23;;;;;;;4.00;1.85;;;;;;;4.90;74.64;98156.84;4391268;32;33198;-87
2021/12/01 00:55:51;;;;;;;3.42;1.77;;;;;;;4.88;73.60;98173.06;4382562;32;33856;-87
2021/12/01 00:58:18;;;;;;;3.35;1.70;;;;;;;5.06;74.10;98153.72;4390698;32;34264;-85
2021/12/01 01:00:49;;;;;;;3.67;1.87;;;;;;;4.99;73.51;98152.72;4376401;32;33969;-84
2021/12/01 01:03:18;;;;;;;3.08;1.60;;;;;;;5.32;72.29;98160.19;4390412;32;33550;-84
2021/12/01 01:05:47;;;;;;;3.60;1.80;;;;;;;5.44;71.57;98150.94;4389982;32;33523;-84
2021/12/01 01:08:16;;;;;;;5.20;2.05;;;;;;;5.12;72.07;98154.69;4376197;32;33472;-85
2021/12/01 01:16:22;;;;;;;3.95;2.00;;;;;;;5.51;70.83;98158.78;4391286;32;34755;-85
2021/12/01 01:18:59;;;;;;;3.37;1.87;;;;;;;5.32;72.11;98161.88;4389796;32;33895;-85
2021/12/01 01:21:36;;;;;;;3.97;2.10;;;;;;;4.97;71.87;98154.41;4376938;32;32517;-87
2021/12/01 01:24:04;;;;;;;4.15;1.83;;;;;;;5.49;70.75;98164.72;4394614;32;32934;-89
2021/12/01 01:26:32;;;;;;;5.55;2.00;;;;;;;5.32;71.37;98152.47;4396393;32;33793;-86
2021/12/01 01:28:59;;;;;;;3.60;1.75;;;;;;;5.56;70.13;98149.44;4391729;32;34961;-87
2021/12/01 01:31:27;;;;;;;5.10;2.30;;;;;;;5.42;70.66;98162.88;4390639;32;34230;-84
2021/12/01 01:33:57;;;;;;;4.32;1.90;;;;;;;5.51;70.28;98157.91;4398690;32;34166;-87
2021/12/01 01:36:26;;;;;;;4.55;2.35;;;;;;;5.22;71.26;98170.25;4392465;32;33653;-87
2021/12/01 01:38:54;;;;;;;3.75;1.98;;;;;;;5.15;71.09;98156.44;4390684;32;34181;-87
2021/12/01 01:41:22;;;;;;;5.10;2.12;;;;;;;5.01;72.18;98160.47;4389698;32;34004;-85
2021/12/01 01:43:51;;;;;;;4.30;2.15;;;;;;;5.16;71.40;98168.47;4376442;32;33029;-85
2021/12/01 01:46:19;;;;;;;5.00;2.10;;;;;;;4.79;72.55;98160.06;4393680;32;33954;-85
2021/12/01 01:48:53;;;;;;;5.20;2.15;;;;;;;5.09;71.76;98161.47;4390091;32;34153;-85
2021/12/01 01:51:24;;;;;;;4.62;2.40;;;;;;;4.83;72.00;98166.97;4396306;32;34723;-89
2021/12/01 01:53:54;;;;;;;3.42;2.00;;;;;;;5.30;71.52;98168.69;4387452;32;33548;-83
2021/12/01 01:56:22;;;;;;;5.07;2.70;;;;;;;5.31;71.38;98184.16;4381407;32;33189;-90
2021/12/01 01:58:50;;;;;;;5.10;2.65;;;;;;;5.21;70.91;98179.69;4389308;32;35135;-89
2021/12/01 02:03:59;;;;;;;5.60;2.85;;;;;;;5.19;71.43;98180.47;4364179;32;32996;-89
2021/12/01 02:06:27;;;;;;;4.40;2.42;;;;;;;5.25;71.19;98196.88;4376539;32;33985;-85
2021/12/01 02:08:57;;;;;;;4.03;2.25;;;;;;;5.44;70.47;98187.78;4377071;32;34461;-89
2021/12/01 02:11:27;;;;;;;5.65;2.40;;;;;;;5.20;71.24;98192.50;4400355;32;34558;-86
2021/12/01 02:13:56;;;;;;;6.12;2.53;;;;;;;5.21;71.05;98187.37;4391521;32;33160;-86
2021/12/01 02:16:23;;;;;;;4.80;2.60;;;;;;;5.18;71.41;98189.88;4364703;32;34081;-86
2021/12/01 02:18:54;;;;;;;4.47;2.42;;;;;;;5.04;71.20;98186.22;4377308;32;34700;-85
2021/12/01 02:21:28;;;;;;;5.95;2.62;;;;;;;5.56;69.91;98197.41;4391807;32;35053;-85
2021/12/01 02:23:58;;;;;;;4.95;2.53;;;;;;;5.50;70.20;98199.91;4393212;32;34495;-84
2021/12/01 02:26:28;;;;;;;4.68;2.47;;;;;;;5.06;71.52;98202.53;4395990;32;34382;-83
2021/12/01 02:28:58;;;;;;;5.07;2.85;;;;;;;5.18;70.82;98189.88;4376678;32;33905;-85
2021/12/01 02:31:28;;;;;;;5.82;2.58;;;;;;;5.56;69.83;98189.69;4393051;32;32977;-84
2021/12/01 02:33:57;;;;;;;4.68;2.55;;;;;;;5.44;70.13;98192.06;4367684;32;32736;-85
2021/12/01 02:36:27;;;;;;;4.68;2.40;;;;;;;5.68;69.20;98195.03;4397988;32;33889;-85
2021/12/01 02:38:55;;;;;;;4.87;2.17;;;;;;;5.56;69.45;98194.84;4377084;32;33800;-85
2021/12/01 02:41:32;;;;;;;7.05;2.30;;;;;;;5.40;70.13;98180.00;4393768;32;34654;-87
2021/12/01 02:44:03;;;;;;;7.07;3.15;;;;;;;5.38;70.01;98185.13;4363603;32;32638;-87
2021/12/01 02:46:30;;;;;;;6.15;2.85;;;;;;;5.52;69.81;98186.22;4384021;32;34017;-88
2021/12/01 02:48:58;;;;;;;4.60;2.60;;;;;;;5.45;69.52;98188.66;4406022;32;33302;-86
2021/12/01 02:51:30;;;;;;;4.78;2.40;;;;;;;5.51;69.55;98194.78;4406145;32;34049;-85
2021/12/01 02:53:58;;;;;;;4.65;2.50;;;;;;;5.47;69.30;98187.84;4382898;32;33462;-88
2021/12/01 02:56:31;;;;;;;5.30;2.37;;;;;;;5.83;68.28;98189.28;4376431;32;34684;-86
2021/12/01 02:59:00;;;;;;;5.53;2.62;;;;;;;5.50;70.15;98198.19;4378217;32;34123;-84
2021/12/01 03:01:28;;;;;;;4.30;2.35;;;;;;;5.43;70.36;98195.50;4382728;32;34661;-88
2021/12/01 03:03:58;;;;;;;4.43;2.10;;;;;;;5.48;70.11;98184.44;4377409;32;33510;-85
2021/12/01 03:06:27;;;;;;;4.57;2.90;;;;;;;5.50;69.22;98187.03;4364302;32;33921;-86
2021/12/01 03:08:55;;;;;;;4.78;2.03;;;;;;;5.53;69.04;98181.94;4390852;32;35109;-87
2021/12/01 03:11:24;;;;;;;4.15;2.08;;;;;;;5.36;69.42;98185.09;4364417;32;34313;-84
2021/12/01 03:13:53;;;;;;;4.18;2.25;;;;;;;5.39;70.13;98193.72;4376997;32;33678;-88
2021/12/01 03:16:22;;;;;;;4.43;1.95;;;;;;;4.96;71.01;98193.75;4401367;32;34156;-87
2021/12/01 03:18:50;;;;;;;3.78;1.80;;;;;;;4.94;71.07;98197.16;4399047;32;33972;-86
2021/12/01 03:21:17;;;;;;;4.37;1.77;;;;;;;5.16;70.72;98191.59;4377555;32;34103;-86
2021/12/01 03:23:45;;;;;;;3.87;2.00;;;;;;;5.25;69.99;98196.00;4394593;32;33195;-85
2021/12/01 03:26:13;;;;;;;3.62;1.80;;;;;;;5.16;70.42;98196.72;4376838;32;33732;-89
2021/12/01 03:28:40;;;;;;;2.65;1.60;;;;;;;5.56;69.03;98207.69;4389944;32;34268;-84
2021/12/01 03:31:08;;;;;;;3.20;1.65;;;;;;;5.20;70.07;98200.22;4403756;32;34738;-84
2021/12/01 03:33:36;;;;;;;2.80;1.37;;;;;;;5.24;69.85;98210.56;4392713;32;33457;-86
2021/12/01 03:36:04;;;;;;;2.35;1.35;;;;;;;5.21;69.75;98202.81;4402256;32;33760;-84
2021/12/01 03:38:31;;;;;;;2.03;1.12;;;;;;;5.50;68.77;98212.75;4390999;32;34189;-89
2021/12/01 03:40:59;;;;;;;2.12;1.35;;;;;;;5.20;69.51;98201.06;4391217;32;32741;-88
2021/12/01 03:43:26;;;;;;;2.80;1.33;;;;;;;5.35;68.74;98214.22;4377251;32;34134;-85
2021/12/01 03:45:54;;;;;;;2.80;1.20;;;;;;;5.68;67.21;98223.31;4378558;32;34665;-85
2021/12/01 03:48:23;;;;;;;1.40;0.90;;;;;;;5.37;69.13;98222.78;4391014;32;35332;-88
2021/12/01 03:50:52;;;;;;;2.50;1.00;;;;;;;5.56;68.06;98218.84;4387071;32;34011;-87
2021/12/01 03:53:21;;;;;;;1.23;0.90;;;;;;;5.47;68.53;98228.13;4394888;32;33498;-88
2021/12/01 03:55:49;;;;;;;0.70;0.60;;;;;;;5.64;68.43;98231.81;4376859;32;34711;-86
2021/12/01 03:58:17;;;;;;;2.55;0.70;;;;;;;5.63;67.97;98222.41;4390646;32;34049;-86
2021/12/01 04:00:44;;;;;;;1.65;0.80;;;;;;;5.52;68.24;98211.91;4376471;32;33563;-86
2021/12/01 04:03:12;;;;;;;1.15;0.70;;;;;;;5.82;66.98;98209.00;4388759;32;34023;-87
2021/12/01 04:05:41;;;;;;;1.65;0.75;;;;;;;5.64;67.79;98216.41;4393763;32;34317;-85
2021/12/01 04:08:08;;;;;;;1.10;0.65;;;;;;;5.79;67.07;98213.22;4396586;32;34905;-90
2021/12/01 04:10:36;;;;;;;1.40;0.70;;;;;;;5.74;67.35;98215.72;4391370;32;33511;-87
2021/12/01 04:13:03;;;;;;;0.68;0.60;;;;;;;5.57;67.61;98223.16;4392106;32;34247;-90
2021/12/01 04:15:31;;;;;;;1.27;0.62;;;;;;;5.73;67.05;98224.28;4391142;32;34085;-82
2021/12/01 04:17:59;;;;;;;1.10;0.70;;;;;;;5.97;65.99;98226.41;4398377;32;34919;-87
2021/12/01 04:20:26;;;;;;;1.45;0.60;;;;;;;5.77;67.41;98233.78;4397672;32;34712;-83
2021/12/01 04:22:54;;;;;;;1.40;0.70;;;;;;;5.46;67.76;98231.53;4395625;32;32641;-83
2021/12/01 04:25:22;;;;;;;1.00;0.60;;;;;;;5.42;68.53;98235.75;4391572;32;34669;-87
2021/12/01 04:27:49;;;;;;;2.50;0.68;;;;;;;5.09;69.35;98234.28;4392272;32;33967;-84
2021/12/01 04:30:21;;;;;;;0.90;0.60;;;;;;;5.36;68.88;98239.06;4386577;32;33473;-85
2021/12/01 04:32:50;;;;;;;1.00;0.60;;;;;;;5.46;68.70;98232.41;4397993;32;33141;-84
2021/12/01 04:35:19;;;;;;;1.00;0.70;;;;;;;5.33;69.28;98238.13;4406108;32;33758;-87
2021/12/01 04:37:47;;;;;;;2.80;0.82;;;;;;;5.59;68.13;98246.31;4381997;32;35357;-84
2021/12/01 04:40:16;;;;;;;1.00;0.70;;;;;;;5.24;69.68;98248.25;4390108;32;33991;-85
2021/12/01 04:42:44;;;;;;;1.62;0.80;;;;;;;5.61;68.52;98250.66;4392714;32;32324;-85
2021/12/01 04:45:17;;;;;;;0.77;0.60;;;;;;;5.49;68.60;98247.87;4405308;32;34577;-86
2021/12/01 04:47:48;;;;;;;1.30;0.77;;;;;;;5.76;68.20;98269.78;4512809;27;34081;-87
2021/12/01 04:50:19;;;;;;;0.95;0.80;;;;;;;5.67;68.17;98282.47;4414553;32;34980;-87
2021/12/01 04:52:48;;;;;;;1.08;0.73;;;;;;;5.74;67.82;98290.31;4413223;32;34323;-89
2021/12/01 04:55:16;;;;;;;1.48;0.70;;;;;;;6.11;66.71;98293.53;4417459;32;34799;-87
2021/12/01 04:57:46;;;;;;;1.25;0.73;;;;;;;6.44;65.62;98285.50;4384811;32;34257;-87
2021/12/01 05:00:18;;;;;;;2.60;0.90;;;;;;;6.58;65.04;98299.41;4406359;32;33999;-85
2021/12/01 05:02:45;;;;;;;2.95;0.90;;;;;;;5.87;67.00;98304.22;4398504;32;33479;-85
2021/12/01 05:05:13;;;;;;;1.58;1.02;;;;;;;6.13;66.31;98317.59;4421099;32;34115;-86
2021/12/01 05:07:41;;;;;;;1.65;1.05;;;;;;;6.53;65.18;98320.81;4403149;32;34325;-86
2021/12/01 05:10:08;;;;;;;3.80;1.12;;;;;;;6.48;65.40;98322.47;4405117;32;34706;-87
2021/12/01 05:12:37;;;;;;;2.30;1.08;;;;;;;5.96;67.23;98331.87;4399985;32;33435;-86
2021/12/01 05:15:05;;;;;;;1.90;1.10;;;;;;;6.42;65.69;98332.66;4385853;32;32702;-87
2021/12/01 05:17:33;;;;;;;3.03;1.52;;;;;;;6.52;65.66;98340.53;4392624;32;34065;-86
2021/12/01 05:20:04;;;;;;;3.55;1.58;;;;;;;6.63;65.26;98351.00;4399428;32;33560;-86
2021/12/01 05:22:32;;;;;;;4.53;2.20;;;;;;;6.65;65.81;98351.88;4402302;32;34147;-87
2021/12/01 05:24:59;;;;;;;3.70;1.73;;;;;;;6.36;66.80;98369.44;4422319;32;34679;-87
2021/12/01 05:27:27;;;;;;;4.45;2.15;;;;;;;6.77;65.38;98369.22;4396194;32;34136;-86
2021/12/01 05:29:54;;;;;;;4.28;2.28;;;;;;;6.74;65.22;98372.66;4407503;32;33965;-86
2021/12/01 05:32:22;;;;;;;4.50;2.00;;;;;;;6.85;64.93;98379.66;4414421;32;34891;-86
2021/12/01 05:34:50;;;;;;;6.28;2.65;;;;;;;6.76;65.85;98388.13;4415111;32;33949;-87
2021/12/01 05:37:17;;;;;;;5.80;3.90;;;;;;;7.07;64.68;98371.38;4417335;32;34245;-89
2021/12/01 05:39:45;;;;;;;6.03;2.50;;;;;;;6.96;65.04;98375.53;4391426;32;34731;-88
2021/12/01 05:42:13;;;;;;;6.03;3.20;;;;;;;7.16;64.58;98374.09;4401073;32;33770;-88
2021/12/01 05:44:41;;;;;;;5.03;2.65;;;;;;;7.09;65.18;98384.31;4405120;32;33920;-84
2021/12/01 05:47:09;;;;;;;5.07;2.65;;;;;;;7.10;65.27;98389.47;4391826;32;33733;-85
2021/12/01 05:49:44;;;;;;;5.35;2.83;;;;;;;7.09;65.33;98398.06;4392347;32;33871;-85
2021/12/01 05:52:14;;;;;;;5.15;2.50;;;;;;;7.09;65.71;98408.37;4418038;32;34292;-87
2021/12/01 05:54:43;;;;;;;4.82;2.53;;;;;;;6.83;66.51;98405.41;4403709;32;34645;-89
2021/12/01 05:57:11;;;;;;;5.78;2.85;;;;;;;7.03;65.42;98410.84;4416530;32;33741;-85
2021/12/01 05:59:38;;;;;;;5.60;2.60;;;;;;;7.01;64.66;98412.56;4413465;32;33287;-84
2021/12/01 06:02:09;;;;;;;6.57;2.60;;;;;;;6.88;65.65;98415.78;4399465;32;33244;-84
2021/12/01 06:04:37;;;;;;;5.15;2.80;;;;;;;6.80;65.59;98419.09;4391144;32;33915;-88
2021/12/01 06:07:04;;;;;;;6.93;3.30;;;;;;;6.75;66.67;98418.16;4420945;32;34313;-89
2021/12/01 06:09:32;;;;;;;4.47;2.55;;;;;;;6.75;66.37;98425.91;4419546;32;33916;-86
2021/12/01 06:11:59;;;;;;;4.62;2.60;;;;;;;6.67;66.48;98416.31;4418191;32;34399;-89
2021/12/01 06:14:27;;;;;;;4.80;2.20;;;;;;;7.09;65.32;98418.69;4386724;32;34809;-86
2021/12/01 06:16:55;;;;;;;4.85;2.30;;;;;;;6.73;66.36;98429.28;4404850;32;34628;-87
2021/12/01 06:19:22;;;;;;;7.70;2.62;;;;;;;6.47;67.02;98421.97;4405206;32;34326;-87
2021/12/01 06:21:50;;;;;;;5.68;2.20;;;;;;;7.11;65.12;98427.28;4390372;32;31968;-85
2021/12/01 06:24:17;;;;;;;5.30;2.15;;;;;;;7.08;65.50;98434.97;4410925;32;33864;-85
2021/12/01 06:26:45;;;;;;;3.70;2.00;;;;;;;7.06;65.42;98440.13;4406290;32;35114;-89
2021/12/01 06:29:12;;;;;;;4.18;2.12;;;;;;;6.87;66.03;98442.38;4419712;32;34112;-86
2021/12/01 06:31:40;;;;;;;5.40;2.45;;;;;;;6.79;66.23;98448.28;4420067;32;34448;-88
2021/12/01 06:34:07;;;;;;;3.40;1.87;;;;;;;6.95;66.20;98457.12;4413978;32;33661;-88
2021/12/01 06:36:35;;;;;;;4.35;2.03;;;;;;;6.72;66.61;98454.19;4395742;32;33778;-86
2021/12/01 06:39:04;;;;;;;4.05;2.17;;;;;;;6.87;66.30;98460.44;4418447;32;33451;-87
2021/12/01 06:41:31;;;;;;;6.72;2.87;;;;;;;6.90;66.38;98461.34;4393370;32;34289;-87
2021/12/01 06:43:59;;;;;;;6.47;3.08;;;;;;;7.16;65.68;98461.75;4419544;32;33965;-87
2021/12/01 06:46:28;;;;;;;5.97;2.78;;;;;;;7.17;65.95;98473.78;4419625;32;34602;-91
2021/12/01 06:48:57;;;;;;;5.65;2.87;;;;;;;7.22;65.92;98469.56;4410283;32;34060;-86
2021/12/01 06:51:25;;;;;;;5.72;2.30;;;;;;;7.34;65.92;98478.31;4380061;32;32653;-86
2021/12/01 06:53:52;;;;;;;5.60;2.15;;;;;;;7.35;65.99;98480.03;4405457;32;34140;-87
2021/12/01 06:56:21;;;;;;;4.68;2.45;;;;;;;7.32;66.70;98476.59;4414416;32;33784;-87
2021/12/01 06:58:49;;;;;;;4.75;2.03;;;;;;;7.45;66.31;98484.50;4407902;32;33535;-86
2021/12/01 07:01:16;;;;;;;6.22;2.67;;;;;;;7.54;66.22;98476.91;4421955;32;33574;-87
2021/12/01 07:03:44;;;;;;;4.03;2.40;;;;;;;7.47;66.29;98480.25;4421862;32;34817;-87
2021/12/01 07:06:12;;;;;;;4.82;2.58;;;;;;;7.44;66.52;98469.87;4414242;32;35113;-87
2021/12/01 07:08:39;;;;;;;4.97;2.10;;;;;;;7.38;66.96;98475.78;4406568;32;33971;-86
2021/12/01 07:11:07;;;;;;;5.07;2.85;;;;;;;7.75;65.92;98460.81;4406695;32;33563;-86
2021/12/01 07:13:35;;;;;;;5.28;2.60;;;;;;;7.58;65.67;98452.88;4406805;32;34536;-89
2021/12/01 07:16:03;;;;;;;5.22;2.83;;;;;;;7.66;65.74;98445.25;4412379;32;34140;-90
2021/12/01 07:18:31;;;;;;;5.93;2.97;;;;;;;7.53;66.57;98444.19;4421639;32;34001;-87
2021/12/01 07:20:59;;;;;;;6.05;2.45;;;;;;;7.46;67.08;98445.84;4421474;32;33146;-86
2021/12/01 07:23:26;;;;;;;5.28;2.60;;;;;;;7.51;67.05;98451.06;4418155;32;33818;-87
2021/12/01 07:26:01;;;;;;;4.78;2.40;;;;;;;7.53;67.58;98454.50;4421643;32;34209;-88
2021/12/01 07:28:29;;;;;;;6.85;3.45;;;;;;;7.40;67.37;98447.47;4421609;32;33969;-86
2021/12/01 07:30:56;;;;;;;7.22;3.35;;;;;;;7.59;65.63;98453.75;4407865;32;33588;-90
2021/12/01 07:33:29;;;;;;;5.75;2.45;;;;;;;7.35;65.95;98464.56;4388360;32;34514;-90
2021/12/01 07:35:57;;;;;;;9.07;3.00;;;;;;;7.40;65.66;98457.78;4406432;32;33138;-87
2021/12/01 07:38:24;;;;;;;6.47;2.67;;;;;;;7.49;65.43;98451.03;4406241;32;33885;-86
2021/12/01 07:40:52;;;;;;;6.53;3.33;;;;;;;7.77;64.58;98447.09;4406119;32;33305;-90
2021/12/01 07:43:19;;;;;;;6.65;2.90;;;;;;;7.76;64.40;98452.22;4398643;32;34049;-86
2021/12/01 07:45:47;;;;;;;6.50;3.25;;;;;;;7.60;65.19;98458.91;4422071;32;34041;-87
2021/12/01 07:48:14;;;;;;;7.05;3.55;;;;;;;7.50;65.73;98451.88;4416633;32;33973;-85
2021/12/01 07:50:42;;;;;;;6.70;3.45;;;;;;;7.68;65.44;98444.38;4408322;32;33092;-88
2021/12/01 07:53:09;;;;;;;7.60;3.20;;;;;;;7.73;65.30;98441.91;4409263;32;33550;-87
2021/12/01 07:55:39;;;;;;;8.00;4.32;;;;;;;7.56;66.36;98439.09;4407718;32;35110;-87
2021/12/01 07:58:06;;;;;;;14.77;7.22;;;;;;;7.46;67.34;98424.31;4407807;32;35183;-87
2021/12/01 08:00:34;;;;;;;8.35;4.00;;;;;;;7.85;66.02;98426.56;4420562;32;33370;-86
2021/12/01 08:03:03;;;;;;;6.40;4.00;;;;;;;7.77;66.75;98423.03;4396473;32;34831;-86
2021/12/01 08:05:32;;;;;;;11.77;6.37;;;;;;;7.85;67.45;98420.53;4415270;32;34816;-90
2021/12/01 08:07:59;;;;;;;5.95;2.83;;;;;;;7.72;68.00;98427.25;4404680;32;34112;-87
2021/12/01 08:10:46;;;;;;;6.22;3.83;;;;;;;7.80;66.96;98418.75;4414431;32;35287;-87
2021/12/01 08:13:13;;;;;;;6.03;2.60;;;;;;;7.90;67.12;98419.72;4421660;32;34427;-86
2021/12/01 08:15:49;;;;;;;4.85;2.47;;;;;;;7.84;67.57;98424.81;4408708;32;33993;-87
2021/12/01 08:18:18;;;;;;;4.55;2.35;;;;;;;7.89;68.17;98422.28;4400110;32;34020;-85
2021/12/01 08:20:45;;;;;;;6.37;2.40;;;;;;;7.93;67.79;98424.06;4405723;32;34151;-86
2021/12/01 08:23:13;;;;;;;3.80;2.17;;;;;;;7.71;68.79;98422.94;4392247;32;34237;-86
2021/12/01 08:25:42;;;;;;;4.32;2.08;;;;;;;7.80;68.70;98417.88;4392335;32;34196;-86
2021/12/01 08:28:09;;;;;;;3.45;1.95;;;;;;;7.62;69.06;98422.84;4384412;32;33998;-89
2021/12/01 08:30:37;;;;;;;5.07;1.85;;;;;;;7.86;68.40;98427.41;4421070;32;33504;-84
2021/12/01 08:33:04;;;;;;;4.03;2.00;;;;;;;8.01;67.90;98423.28;4420852;32;34626;-84
2021/12/01 08:35:32;;;;;;;4.05;1.80;;;;;;;8.10;68.17;98422.50;4412259;32;34925;-88
2021/12/01 08:38:00;;;;;;;4.00;1.80;;;;;;;7.87;68.45;98424.84;4420006;32;34341;-86
2021/12/01 08:40:27;;;;;;;4.97;2.40;;;;;;;7.72;69.07;98435.84;4421147;32;33089;-90
2021/12/01 08:42:55;;;;;;;3.90;1.75;;;;;;;8.00;68.59;98431.03;4421062;32;33796;-86
2021/12/01 08:45:23;;;;;;;4.35;1.70;;;;;;;7.80;69.49;98433.34;4413966;32;34964;-85
2021/12/01 08:47:50;;;;;;;5.50;1.87;;;;;;;7.46;71.09;98435.53;4406963;32;34656;-87
2021/12/01 08:50:18;;;;;;;4.25;1.92;;;;;;;7.40;71.19;98427.69;4421047;32;34159;-86
2021/12/01 08:52:47;;;;;;;4.07;2.03;;;;;;;7.52;71.37;98427.00;4407240;32;34623;-86
2021/12/01 08:55:15;;;;;;;5.30;2.15;;;;;;;7.39;71.91;98427.69;4418093;32;34307;-86
2021/12/01 08:58:03;;;;;;;5.05;2.58;;;;;;;7.85;70.46;98431.72;4419854;32;33429;-85
2021/12/01 09:00:33;;;;;;;6.53;3.15;;;;;;;7.91;70.74;98428.31;4420905;32;34658;-86
2021/12/01 09:03:00;;;;;;;7.68;3.20;;;;;;;8.38;68.78;98425.44;4419647;32;33178;-86
2021/12/01 09:05:28;;;;;;;7.87;3.03;;;;;;;8.16;70.21;98427.75;4421038;32;35332;-84
2021/12/01 09:07:56;;;;;;;6.90;3.35;;;;;;;8.19;70.50;98419.19;4419792;32;34693;-86
2021/12/01 09:10:23;;;;;;;9.57;3.58;;;;;;;8.03;70.84;98421.59;4420907;32;33229;-85
2021/12/01 09:12:53;;;;;;;7.65;3.50;;;;;;;8.27;69.64;98415.81;4420601;32;34435;-86
2021/12/01 09:15:20;;;;;;;8.18;3.75;;;;;;;8.40;69.30;98401.31;4420474;32;35830;-86
2021/12/01 09:17:47;;;;;;;5.85;3.12;;;;;;;8.15;70.47;98400.22;4420598;32;33680;-86
2021/12/01 09:20:15;;;;;;;10.13;4.20;;;;;;;8.02;70.39;98388.00;4419465;32;33575;-87
2021/12/01 09:22:43;;;;;;;7.80;3.53;;;;;;;8.32;69.83;98387.44;4419879;32;34648;-86
2021/12/01 09:25:11;;;;;;;11.02;4.15;;;;;;;8.20;70.12;98395.94;4420749;32;34279;-86
2021/12/01 09:27:39;;;;;;;8.95;4.28;;;;;;;8.10;71.24;98407.03;4420527;32;33988;-86
2021/12/01 09:30:07;;;;;;;13.20;4.57;;;;;;;8.33;70.57;98409.81;4408578;32;33648;-87
2021/12/01 09:32:37;;;;;;;10.35;5.62;;;;;;;8.55;70.18;98416.09;4409614;32;33759;-86
2021/12/01 09:35:06;;;;;;;12.13;5.90;;;;;;;8.60;70.45;98403.22;4406792;32;34063;-86
2021/12/01 09:37:34;;;;;;;11.52;6.20;;;;;;;8.17;70.39;98416.56;4420385;32;34259;-86
2021/12/01 09:40:13;;;;;;;13.23;5.87;;;;;;;8.32;70.02;98399.50;4398698;32;33430;-86
2021/12/01 09:42:49;;;;;;;11.48;6.07;;;;;;;8.35;69.38;98378.88;4402431;32;34584;-87
2021/12/01 09:45:17;;;;;;;;;;;;;;;8.31;69.63;98384.84;4391491;32;33823;-86
2021/12/01 09:47:44;;;;;;;15.18;5.87;;;;;;;8.35;69.37;98368.53;4405744;32;35359;-85
2021/12/01 09:50:12;;;;;;;13.48;7.40;;;;;;;8.13;69.41;98376.06;4413315;32;33592;-86
2021/12/01 09:52:40;;;;;;;12.82;6.18;;;;;;;8.04;68.62;98363.09;4406381;32;33870;-86
2021/12/01 09:55:12;;;;;;;13.15;8.93;;;;;;;8.20;68.80;98357.22;4419951;32;34168;-85
2021/12/01 09:58:04;;;;;;;11.65;7.22;;;;;;;7.97;68.13;98361.28;4409727;32;34049;-84
2021/12/01 10:00:34;;;;;;;14.30;7.32;;;;;;;8.11;67.99;98364.88;4413148;32;33598;-87
2021/12/01 10:03:03;;;;;;;16.67;7.35;;;;;;;7.97;68.96;98363.88;4419810;32;33809;-86
2021/12/01 10:06:09;;;;;;;11.15;6.82;;;;;;;8.14;68.15;98370.06;4402703;32;35034;-85
2021/12/01 10:08:44;;;;;;;11.60;6.78;;;;;;;8.33;66.93;98362.47;4417630;32;33629;-86
2021/12/01 10:11:15;;;;;;;12.20;7.87;;;;;;;8.12;66.90;98361.44;4416296;32;33724;-87
2021/12/01 10:13:46;;;;;;;13.27;6.62;;;;;;;8.38;66.55;98361.72;4390804;32;32898;-85
2021/12/01 10:16:15;;;;;;;13.55;8.05;;;;;;;8.03;66.90;98348.44;4405584;32;35057;-85
2021/12/01 10:18:51;;;;;;;11.68;6.50;;;;;;;8.22;66.10;98352.94;4404458;32;33465;-86
2021/12/01 10:21:24;;;;;;;9.82;6.50;;;;;;;8.41;65.09;98347.94;4404637;32;33212;-84
2021/12/01 10:23:57;;;;;;;9.38;5.68;;;;;;;8.28;65.10;98357.28;4392515;32;33522;-85
2021/12/01 10:26:36;;;;;;;10.18;5.45;;;;;;;7.97;66.05;98358.72;4406665;32;33942;-86
2021/12/01 10:29:19;;;;;;;9.70;5.75;;;;;;;8.32;63.79;98355.59;4392516;32;34116;-85
2021/12/01 10:32:01;;;;;;;10.00;5.80;;;;;;;8.02;64.56;98357.91;4406708;32;34307;-86
2021/12/01 10:34:36;;;;;;;11.77;7.80;;;;;;;8.12;63.25;98363.16;4401613;32;33420;-85
2021/12/01 10:37:26;;;;;;;16.73;9.65;;;;;;;7.95;63.72;98363.84;4421759;32;34153;-85
2021/12/01 10:40:09;;;;;;;15.10;9.73;;;;;;;8.15;62.57;98358.03;4407540;32;34788;-85
2021/12/01 10:42:54;;;;;;;13.60;9.43;;;;;;;7.90;63.02;98368.09;4407291;32;33282;-87
2021/12/01 10:45:26;;;;;;;11.70;7.22;;;;;;;8.12;63.16;98353.69;4415677;32;34786;-86
2021/12/01 10:47:55;;;;;;;11.60;7.07;;;;;;;7.91;63.47;98350.91;4404772;32;33139;-84
2021/12/01 10:50:25;;;;;;;12.02;6.62;;;;;;;8.25;63.00;98344.34;4421302;32;33666;-84
2021/12/01 10:53:02;;;;;;;10.85;5.85;;;;;;;8.37;63.36;98348.75;4395302;32;33375;-83
2021/12/01 10:55:31;;;;;;;11.07;6.40;;;;;;;8.54;62.99;98331.69;4421476;32;34596;-84
2021/12/01 10:58:04;;;;;;;10.85;5.40;;;;;;;8.34;63.05;98339.28;4407537;32;33735;-85
2021/12/01 11:00:44;;;;;;;16.05;6.12;;;;;;;8.51;62.72;98321.34;4407810;32;33552;-84
2021/12/01 11:03:25;;;;;;;15.55;5.95;;;;;;;8.64;62.05;98323.16;4396587;32;33452;-84
2021/12/01 11:05:55;;;;;;;10.10;4.47;;;;;;;8.39;62.09;98331.59;4406062;32;33828;-83
2021/12/01 11:08:26;;;;;;;10.45;5.22;;;;;;;8.41;61.74;98320.41;4406117;32;33834;-84
2021/12/01 11:11:03;;;;;;;9.98;5.20;;;;;;;8.59;61.44;98311.91;4399727;32;33751;-83
2021/12/01 11:13:32;;;;;;;8.63;4.60;;;;;;;8.58;60.92;98323.13;4407413;32;34619;-83
2021/12/01 11:16:01;;;;;;;12.25;5.10;;;;;;;8.64;61.23;98320.59;4411410;32;33178;-83
2021/12/01 11:18:50;;;;;;;10.52;5.07;;;;;;;8.49;62.51;98303.25;4409797;32;33724;-84
2021/12/01 11:21:24;;;;;;;10.98;4.75;;;;;;;8.57;61.07;98299.88;4399502;32;32418;-84
2021/12/01 11:24:02;;;;;;;8.13;4.55;;;;;;;8.49;61.36;98290.34;4407431;32;34286;-83
2021/12/01 11:26:31;;;;;;;11.30;4.75;;;;;;;8.57;60.62;98281.78;4394209;32;34823;-84
2021/12/01 11:29:01;;;;;;;9.98;4.95;;;;;;;8.48;61.27;98265.34;4392365;32;33550;-83
2021/12/01 11:31:44;;;;;;;8.65;4.50;;;;;;;8.68;60.19;98257.75;4392111;32;35092;-88
2021/12/01 11:34:17;;;;;;;9.23;4.35;;;;;;;8.60;60.69;98258.53;4405936;32;33409;-89
2021/12/01 11:36:47;;;;;;;9.85;4.05;;;;;;;8.55;59.92;98255.91;4404749;32;34633;-85
2021/12/01 11:39:18;;;;;;;7.18;3.50;;;;;;;9.02;59.56;98242.41;4406041;32;34319;-89
2021/12/01 11:41:47;;;;;;;8.27;3.47;;;;;;;8.94;58.86;98236.31;4391862;32;33807;-89
2021/12/01 11:44:17;;;;;;;8.35;3.90;;;;;;;9.22;58.06;98238.16;4405923;32;33532;-89
2021/12/01 11:46:47;;;;;;;7.95;3.87;;;;;;;9.20;57.60;98232.09;4406212;32;34611;-86
2021/12/01 11:49:17;;;;;;;7.70;3.97;;;;;;;9.10;56.77;98230.34;4393168;32;35344;-86
2021/12/01 11:51:47;;;;;;;10.00;3.85;;;;;;;9.24;56.58;98223.50;4392674;32;33505;-86
2021/12/01 11:54:20;;;;;;;10.93;4.18;;;;;;;9.27;56.54;98207.97;4393904;32;34412;-86
2021/12/01 11:56:53;;;;;;;7.60;4.22;;;;;;;9.44;57.06;98212.34;4392123;32;33566;-86
2021/12/01 11:59:31;;;;;;;7.93;3.70;;;;;;;9.55;57.74;98205.47;4392194;32;33720;-86
2021/12/01 12:02:02;;;;;;;9.90;4.47;;;;;;;9.85;55.85;98206.31;4405756;32;34579;-85